sensor_id;sensor_type;location;lat;lon;timestamp;pressure;altitude;pressure_sealevel;temperature;humidity
19259;BME280;9763;48.780;9.212;2023-02-12T00:01:21;100347.88;;;10.48;53.39
19259;BME280;9763;48.780;9.212;2023-02-12T00:04:47;100349.63;;;10.47;52.82
19259;BME280;9763;48.780;9.212;2023-02-12T00:08:12;100354.84;;;10.47;53.45
19259;BME280;9763;48.780;9.212;2023-02-12T00:11:35;100355.75;;;10.46;53.41
19259;BME280;9763;48.780;9.212;2023-02-12T00:14:59;100354.91;;;10.45;52.90
19259;BME280;9763;48.780;9.212;2023-02-12T00:18:22;100363.59;;;10.46;52.94
19259;BME280;9763;48.780;9.212;2023-02-12T00:21:46;100360.13;;;10.45;53.48
19259;BME280;9763;48.780;9.212;2023-02-12T00:25:11;100362.78;;;10.44;53.46
19259;BME280;9763;48.780;9.212;2023-02-12T00:28:35;100366.34;;;10.41;53.05
19259;BME280;9763;48.780;9.212;2023-02-12T00:31:59;100365.66;;;10.36;53.15
19259;BME280;9763;48.780;9.212;2023-02-12T00:35:23;100363.09;;;10.35;53.25
19259;BME280;9763;48.780;9.212;2023-02-12T00:38:49;100365.69;;;10.35;53.58
19259;BME280;9763;48.780;9.212;2023-02-12T00:42:14;100368.34;;;10.33;53.57
19259;BME280;9763;48.780;9.212;2023-02-12T00:45:38;100371.88;;;10.32;52.99
19259;BME280;9763;48.780;9.212;2023-02-12T00:49:01;100375.38;;;10.31;53.57
19259;BME280;9763;48.780;9.212;2023-02-12T00:52:25;100379.78;;;10.29;53.47
19259;BME280;9763;48.780;9.212;2023-02-12T00:55:49;100385.94;;;10.27;53.22
19259;BME280;9763;48.780;9.212;2023-02-12T00:59:14;100385.16;;;10.25;53.25
19259;BME280;9763;48.780;9.212;2023-02-12T01:02:37;100377.28;;;10.26;53.50
19259;BME280;9763;48.780;9.212;2023-02-12T01:06:03;100377.34;;;10.25;53.74
19259;BME280;9763;48.780;9.212;2023-02-12T01:09:27;100378.31;;;10.21;53.55
19259;BME280;9763;48.780;9.212;2023-02-12T01:12:51;100380.97;;;10.19;53.47
19259;BME280;9763;48.780;9.212;2023-02-12T01:16:20;100382.75;;;10.19;53.27
19259;BME280;9763;48.780;9.212;2023-02-12T01:19:44;100390.56;;;10.19;53.90
19259;BME280;9763;48.780;9.212;2023-02-12T01:23:07;100385.25;;;10.22;53.76
19259;BME280;9763;48.780;9.212;2023-02-12T01:26:31;100372.22;;;10.22;53.54
19259;BME280;9763;48.780;9.212;2023-02-12T01:29:55;100375.72;;;10.21;53.86
19259;BME280;9763;48.780;9.212;2023-02-12T01:33:20;100383.53;;;10.21;53.46
19259;BME280;9763;48.780;9.212;2023-02-12T01:36:43;100377.53;;;10.19;53.39
19259;BME280;9763;48.780;9.212;2023-02-12T01:40:10;100378.47;;;10.15;54.12
19259;BME280;9763;48.780;9.212;2023-02-12T01:43:37;100372.34;;;10.16;54.33
19259;BME280;9763;48.780;9.212;2023-02-12T01:47:05;100378.38;;;10.18;53.96
19259;BME280;9763;48.780;9.212;2023-02-12T01:50:30;100366.19;;;10.20;54.21
19259;BME280;9763;48.780;9.212;2023-02-12T01:53:55;100368.03;;;10.15;54.39
19259;BME280;9763;48.780;9.212;2023-02-12T01:57:21;100368.13;;;10.13;53.88
19259;BME280;9763;48.780;9.212;2023-02-12T02:00:47;100365.56;;;10.11;53.94
19259;BME280;9763;48.780;9.212;2023-02-12T02:04:16;100370.81;;;10.10;53.76
19259;BME280;9763;48.780;9.212;2023-02-12T02:07:44;100367.25;;;10.13;54.44
19259;BME280;9763;48.780;9.212;2023-02-12T02:11:09;100362.03;;;10.13;54.14
19259;BME280;9763;48.780;9.212;2023-02-12T02:14:48;100362.09;;;10.11;54.00
19259;BME280;9763;48.780;9.212;2023-02-12T02:18:22;100372.47;;;10.13;54.11
19259;BME280;9763;48.780;9.212;2023-02-12T02:22:22;100359.53;;;10.09;54.29
19259;BME280;9763;48.780;9.212;2023-02-12T02:26:27;100345.63;;;10.09;54.07
19259;BME280;9763;48.780;9.212;2023-02-12T02:30:33;100343.16;;;10.04;54.24
19259;BME280;9763;48.780;9.212;2023-02-12T02:34:02;100359.81;;;10.00;54.76
19259;BME280;9763;48.780;9.212;2023-02-12T02:37:35;100346.91;;;9.96;54.38
19259;BME280;9763;48.780;9.212;2023-02-12T02:41:07;100341.59;;;9.99;54.75
19259;BME280;9763;48.780;9.212;2023-02-12T02:44:38;100334.50;;;10.02;54.06
19259;BME280;9763;48.780;9.212;2023-02-12T02:48:11;100349.19;;;10.06;54.60
19259;BME280;9763;48.780;9.212;2023-02-12T02:51:41;100343.06;;;10.07;54.63
19259;BME280;9763;48.780;9.212;2023-02-12T02:55:10;100343.00;;;10.09;54.09
19259;BME280;9763;48.780;9.212;2023-02-12T02:58:41;100346.47;;;10.09;54.45
19259;BME280;9763;48.780;9.212;2023-02-12T03:02:11;100342.28;;;10.04;54.80
19259;BME280;9763;48.780;9.212;2023-02-12T03:05:42;100347.50;;;10.04;54.50
19259;BME280;9763;48.780;9.212;2023-02-12T03:09:16;100342.25;;;10.05;54.52
19259;BME280;9763;48.780;9.212;2023-02-12T03:12:47;100350.84;;;10.09;54.30
19259;BME280;9763;48.780;9.212;2023-02-12T03:16:17;100342.97;;;10.10;54.81
19259;BME280;9763;48.780;9.212;2023-02-12T03:19:47;100344.72;;;10.10;54.82
19259;BME280;9763;48.780;9.212;2023-02-12T03:23:19;100354.22;;;10.13;54.61
19259;BME280;9763;48.780;9.212;2023-02-12T03:26:49;100352.50;;;10.11;54.61
19259;BME280;9763;48.780;9.212;2023-02-12T03:30:14;100356.88;;;10.11;54.54
19259;BME280;9763;48.780;9.212;2023-02-12T03:33:52;100358.56;;;10.12;54.19
19259;BME280;9763;48.780;9.212;2023-02-12T03:37:31;100346.53;;;10.08;54.17
19259;BME280;9763;48.780;9.212;2023-02-12T03:41:04;100348.31;;;10.06;54.68
19259;BME280;9763;48.780;9.212;2023-02-12T03:44:46;100342.19;;;10.07;54.58
19259;BME280;9763;48.780;9.212;2023-02-12T03:48:21;100343.09;;;10.06;54.16
19259;BME280;9763;48.780;9.212;2023-02-12T03:51:45;100355.19;;;10.08;54.19
19259;BME280;9763;48.780;9.212;2023-02-12T03:55:10;100362.13;;;10.09;54.68
19259;BME280;9763;48.780;9.212;2023-02-12T03:58:37;100356.00;;;10.10;54.10
19259;BME280;9763;48.780;9.212;2023-02-12T04:02:02;100355.25;;;10.07;54.71
19259;BME280;9763;48.780;9.212;2023-02-12T04:05:27;100365.63;;;10.08;54.23
19259;BME280;9763;48.780;9.212;2023-02-12T04:08:52;100369.22;;;10.04;54.09
19259;BME280;9763;48.780;9.212;2023-02-12T04:12:33;100361.44;;;10.03;54.79
19259;BME280;9763;48.780;9.212;2023-02-12T04:16:18;100362.44;;;10.00;54.92
19259;BME280;9763;48.780;9.212;2023-02-12T04:20:02;100370.13;;;10.03;54.36
19259;BME280;9763;48.780;9.212;2023-02-12T04:23:45;100365.78;;;10.04;54.82
19259;BME280;9763;48.780;9.212;2023-02-12T04:27:19;100370.22;;;10.02;54.79
19259;BME280;9763;48.780;9.212;2023-02-12T04:30:54;100375.56;;;9.97;54.83
19259;BME280;9763;48.780;9.212;2023-02-12T04:34:27;100376.44;;;9.96;54.81
19259;BME280;9763;48.780;9.212;2023-02-12T04:38:02;100377.41;;;9.94;54.80
19259;BME280;9763;48.780;9.212;2023-02-12T04:41:30;100380.09;;;9.91;54.79
19259;BME280;9763;48.780;9.212;2023-02-12T04:44:54;100380.16;;;9.89;54.35
19259;BME280;9763;48.780;9.212;2023-02-12T04:48:17;100380.09;;;9.91;54.40
19259;BME280;9763;48.780;9.212;2023-02-12T04:51:43;100386.13;;;9.93;55.01
19259;BME280;9763;48.780;9.212;2023-02-12T04:55:07;100385.22;;;9.94;54.78
19259;BME280;9763;48.780;9.212;2023-02-12T04:58:31;100395.66;;;9.94;54.78
19259;BME280;9763;48.780;9.212;2023-02-12T05:01:55;100387.81;;;9.94;54.76
19259;BME280;9763;48.780;9.212;2023-02-12T05:05:20;100391.28;;;9.94;54.91
19259;BME280;9763;48.780;9.212;2023-02-12T05:08:44;100385.22;;;9.94;54.50
19259;BME280;9763;48.780;9.212;2023-02-12T05:12:08;100385.22;;;9.94;54.56
19259;BME280;9763;48.780;9.212;2023-02-12T05:15:33;100386.06;;;9.94;54.52
19259;BME280;9763;48.780;9.212;2023-02-12T05:19:00;100373.06;;;9.93;55.11
19259;BME280;9763;48.780;9.212;2023-02-12T05:22:23;100374.88;;;9.91;55.04
19259;BME280;9763;48.780;9.212;2023-02-12T05:25:48;100377.47;;;9.91;55.12
19259;BME280;9763;48.780;9.212;2023-02-12T05:29:12;100374.09;;;9.89;54.86
19259;BME280;9763;48.780;9.212;2023-02-12T05:32:36;100381.97;;;9.87;54.49
19259;BME280;9763;48.780;9.212;2023-02-12T05:36:03;100383.75;;;9.85;54.71
19259;BME280;9763;48.780;9.212;2023-02-12T05:39:27;100383.78;;;9.84;54.51
19259;BME280;9763;48.780;9.212;2023-02-12T05:42:52;100381.22;;;9.82;54.45
19259;BME280;9763;48.780;9.212;2023-02-12T05:46:17;100381.31;;;9.79;54.58
19259;BME280;9763;48.780;9.212;2023-02-12T05:49:41;100382.16;;;9.80;54.62
19259;BME280;9763;48.780;9.212;2023-02-12T05:53:05;100372.63;;;9.79;54.90
19259;BME280;9763;48.780;9.212;2023-02-12T05:56:31;100386.59;;;9.78;54.90
19259;BME280;9763;48.780;9.212;2023-02-12T05:59:56;100391.88;;;9.76;55.11
19259;BME280;9763;48.780;9.212;2023-02-12T06:03:20;100390.97;;;9.77;54.64
19259;BME280;9763;48.780;9.212;2023-02-12T06:06:44;100387.44;;;9.78;55.35
19259;BME280;9763;48.780;9.212;2023-02-12T06:10:08;100387.44;;;9.78;55.11
19259;BME280;9763;48.780;9.212;2023-02-12T06:13:33;100383.06;;;9.79;55.06
19259;BME280;9763;48.780;9.212;2023-02-12T06:16:59;100390.88;;;9.79;55.14
19259;BME280;9763;48.780;9.212;2023-02-12T06:20:23;100387.50;;;9.77;55.05
19259;BME280;9763;48.780;9.212;2023-02-12T06:23:47;100389.28;;;9.74;55.38
19259;BME280;9763;48.780;9.212;2023-02-12T06:27:11;100391.13;;;9.71;55.49
19259;BME280;9763;48.780;9.212;2023-02-12T06:30:35;100391.13;;;9.71;55.16
19259;BME280;9763;48.780;9.212;2023-02-12T06:34:05;100385.88;;;9.72;55.56
19259;BME280;9763;48.780;9.212;2023-02-12T06:37:29;100397.06;;;9.76;55.14
19259;BME280;9763;48.780;9.212;2023-02-12T06:40:53;100398.72;;;9.79;55.30
19259;BME280;9763;48.780;9.212;2023-02-12T06:44:17;100403.88;;;9.80;54.84
19259;BME280;9763;48.780;9.212;2023-02-12T06:47:40;100414.28;;;9.82;55.36
19259;BME280;9763;48.780;9.212;2023-02-12T06:51:08;100408.13;;;9.84;55.07
19259;BME280;9763;48.780;9.212;2023-02-12T06:54:31;100418.47;;;9.87;55.52
19259;BME280;9763;48.780;9.212;2023-02-12T06:57:55;100410.59;;;9.89;55.45
19259;BME280;9763;48.780;9.212;2023-02-12T07:01:22;100414.06;;;9.89;54.98
19259;BME280;9763;48.780;9.212;2023-02-12T07:04:46;100422.63;;;9.93;54.85
19259;BME280;9763;48.780;9.212;2023-02-12T07:08:11;100419.13;;;9.94;55.66
19259;BME280;9763;48.780;9.212;2023-02-12T07:11:35;100422.56;;;9.96;54.91
19259;BME280;9763;48.780;9.212;2023-02-12T07:15:00;100424.13;;;10.01;55.60
19259;BME280;9763;48.780;9.212;2023-02-12T07:18:23;100420.47;;;10.07;55.22
19259;BME280;9763;48.780;9.212;2023-02-12T07:21:47;100427.25;;;10.13;55.24
19259;BME280;9763;48.780;9.212;2023-02-12T07:25:12;100428.81;;;10.20;55.31
19259;BME280;9763;48.780;9.212;2023-02-12T07:28:36;100426.06;;;10.24;55.38
19259;BME280;9763;48.780;9.212;2023-02-12T07:32:00;100423.28;;;10.29;55.13
19259;BME280;9763;48.780;9.212;2023-02-12T07:35:24;100425.78;;;10.33;54.77
19259;BME280;9763;48.780;9.212;2023-02-12T07:38:48;100428.16;;;10.39;54.82
19259;BME280;9763;48.780;9.212;2023-02-12T07:42:13;100427.28;;;10.40;54.72
19259;BME280;9763;48.780;9.212;2023-02-12T07:45:43;100428.97;;;10.41;55.38
19259;BME280;9763;48.780;9.212;2023-02-12T07:49:10;100425.34;;;10.47;55.21
19259;BME280;9763;48.780;9.212;2023-02-12T07:52:35;100432.09;;;10.53;54.90
19259;BME280;9763;48.780;9.212;2023-02-12T07:56:09;100424.97;;;10.58;55.15
19259;BME280;9763;48.780;9.212;2023-02-12T07:59:34;100417.00;;;10.62;55.14
19259;BME280;9763;48.780;9.212;2023-02-12T08:02:57;100419.41;;;10.68;54.98
19259;BME280;9763;48.780;9.212;2023-02-12T08:06:24;100426.25;;;10.72;55.10
19259;BME280;9763;48.780;9.212;2023-02-12T08:09:48;100422.59;;;10.76;54.57
19259;BME280;9763;48.780;9.212;2023-02-12T08:13:12;100419.84;;;10.81;54.91
19259;BME280;9763;48.780;9.212;2023-02-12T08:16:40;100411.88;;;10.86;55.21
19259;BME280;9763;48.780;9.212;2023-02-12T08:20:05;100415.13;;;10.92;54.62
19259;BME280;9763;48.780;9.212;2023-02-12T08:23:30;100421.81;;;10.99;55.03
19259;BME280;9763;48.780;9.212;2023-02-12T08:26:54;100413.88;;;11.02;55.02
19259;BME280;9763;48.780;9.212;2023-02-12T08:30:18;100418.22;;;11.03;55.28
19259;BME280;9763;48.780;9.212;2023-02-12T08:33:45;100418.88;;;11.10;54.84
19259;BME280;9763;48.780;9.212;2023-02-12T08:37:09;100412.50;;;11.17;54.72
19259;BME280;9763;48.780;9.212;2023-02-12T08:40:32;100414.75;;;11.28;55.25
19259;BME280;9763;48.780;9.212;2023-02-12T08:43:58;100411.78;;;11.37;54.99
19259;BME280;9763;48.780;9.212;2023-02-12T08:47:22;100415.00;;;11.45;55.05
19259;BME280;9763;48.780;9.212;2023-02-12T08:50:47;100417.28;;;11.54;54.98
19259;BME280;9763;48.780;9.212;2023-02-12T08:54:14;100416.97;;;11.62;54.52
19259;BME280;9763;48.780;9.212;2023-02-12T08:57:38;100416.03;;;11.64;54.44
19259;BME280;9763;48.780;9.212;2023-02-12T09:01:08;100424.34;;;11.75;54.77
19259;BME280;9763;48.780;9.212;2023-02-12T09:04:32;100428.38;;;11.84;54.24
19259;BME280;9763;48.780;9.212;2023-02-12T09:07:58;100428.16;;;11.90;54.00
19259;BME280;9763;48.780;9.212;2023-02-12T09:11:24;100427.91;;;11.96;54.28
19259;BME280;9763;48.780;9.212;2023-02-12T09:14:52;100430.38;;;12.01;54.57
19259;BME280;9763;48.780;9.212;2023-02-12T09:18:15;100431.06;;;12.06;54.71
19259;BME280;9763;48.780;9.212;2023-02-12T09:21:40;100421.31;;;12.09;54.33
19259;BME280;9763;48.780;9.212;2023-02-12T09:25:06;100422.78;;;12.16;54.69
19259;BME280;9763;48.780;9.212;2023-02-12T09:28:30;100413.75;;;12.23;54.53
19259;BME280;9763;48.780;9.212;2023-02-12T09:31:54;100421.06;;;12.37;54.36
19259;BME280;9763;48.780;9.212;2023-02-12T09:35:19;100424.22;;;12.45;54.25
19259;BME280;9763;48.780;9.212;2023-02-12T09:38:43;100425.72;;;12.52;54.28
19259;BME280;9763;48.780;9.212;2023-02-12T09:42:22;100420.09;;;12.61;53.51
19259;BME280;9763;48.780;9.212;2023-02-12T09:45:59;100415.38;;;12.70;53.81
19259;BME280;9763;48.780;9.212;2023-02-12T09:49:53;100423.06;;;12.74;54.14
19259;BME280;9763;48.780;9.212;2023-02-12T09:53:23;100420.91;;;12.84;53.99
19259;BME280;9763;48.780;9.212;2023-02-12T09:56:52;100427.50;;;12.92;54.21
19259;BME280;9763;48.780;9.212;2023-02-12T10:00:24;100428.91;;;13.01;54.24
19259;BME280;9763;48.780;9.212;2023-02-12T10:03:52;100426.13;;;13.04;53.53
19259;BME280;9763;48.780;9.212;2023-02-12T10:07:30;100413.25;;;13.20;54.07
19259;BME280;9763;48.780;9.212;2023-02-12T10:15:33;100422.19;;;13.55;53.20
19259;BME280;9763;48.780;9.212;2023-02-12T10:19:15;100420.00;;;13.64;53.62
19259;BME280;9763;48.780;9.212;2023-02-12T10:22:56;100417.97;;;13.71;53.22
19259;BME280;9763;48.780;9.212;2023-02-12T10:26:29;100419.59;;;13.74;53.84
19259;BME280;9763;48.780;9.212;2023-02-12T10:29:54;100422.00;;;13.78;53.38
19259;BME280;9763;48.780;9.212;2023-02-12T10:33:28;100412.28;;;13.80;53.23
19259;BME280;9763;48.780;9.212;2023-02-12T10:37:02;100411.88;;;13.89;53.04
19259;BME280;9763;48.780;9.212;2023-02-12T10:40:29;100413.28;;;13.96;53.83
19259;BME280;9763;48.780;9.212;2023-02-12T10:43:56;100409.50;;;14.02;53.90
19259;BME280;9763;48.780;9.212;2023-02-12T10:47:23;100412.13;;;14.02;53.38
19259;BME280;9763;48.780;9.212;2023-02-12T10:51:07;100406.88;;;14.02;53.86
19259;BME280;9763;48.780;9.212;2023-02-12T10:54:41;100397.41;;;13.99;53.70
19259;BME280;9763;48.780;9.212;2023-02-12T10:58:19;100396.38;;;14.02;53.34
19259;BME280;9763;48.780;9.212;2023-02-12T11:01:46;100398.75;;;14.08;53.58
19259;BME280;9763;48.780;9.212;2023-02-12T11:05:23;100389.69;;;14.14;53.56
19259;BME280;9763;48.780;9.212;2023-02-12T11:08:49;100392.06;;;14.20;53.69
19259;BME280;9763;48.780;9.212;2023-02-12T11:12:31;100392.97;;;14.19;53.09
19259;BME280;9763;48.780;9.212;2023-02-12T11:15:57;100388.78;;;14.15;53.01
19259;BME280;9763;48.780;9.212;2023-02-12T11:19:26;100393.97;;;14.16;53.43
19259;BME280;9763;48.780;9.212;2023-02-12T11:22:53;100391.19;;;14.19;53.09
19259;BME280;9763;48.780;9.212;2023-02-12T11:26:28;100391.19;;;14.19;53.26
19259;BME280;9763;48.780;9.212;2023-02-12T11:30:18;100385.16;;;14.17;53.65
19259;BME280;9763;48.780;9.212;2023-02-12T11:33:42;100378.34;;;14.13;53.24
19259;BME280;9763;48.780;9.212;2023-02-12T11:37:15;100382.13;;;14.07;53.56
19259;BME280;9763;48.780;9.212;2023-02-12T11:40:46;100374.63;;;14.00;53.58
19259;BME280;9763;48.780;9.212;2023-02-12T11:44:17;100380.22;;;13.92;54.21
19259;BME280;9763;48.780;9.212;2023-02-12T11:47:41;100379.59;;;13.87;54.17
19259;BME280;9763;48.780;9.212;2023-02-12T11:51:08;100373.50;;;13.87;54.15
19259;BME280;9763;48.780;9.212;2023-02-12T11:54:45;100367.16;;;13.91;54.07
19259;BME280;9763;48.780;9.212;2023-02-12T11:58:17;100363.19;;;14.01;54.17
19259;BME280;9763;48.780;9.212;2023-02-12T12:01:45;100363.53;;;14.12;54.08
19259;BME280;9763;48.780;9.212;2023-02-12T12:05:15;100356.13;;;14.20;53.90
19259;BME280;9763;48.780;9.212;2023-02-12T12:08:45;100359.00;;;14.33;53.24
19259;BME280;9763;48.780;9.212;2023-02-12T12:12:18;100355.03;;;14.43;53.80
19259;BME280;9763;48.780;9.212;2023-02-12T12:15:50;100351.88;;;14.54;53.23
19259;BME280;9763;48.780;9.212;2023-02-12T12:19:42;100350.47;;;14.64;53.15
19259;BME280;9763;48.780;9.212;2023-02-12T12:23:22;100356.28;;;14.70;53.04
19259;BME280;9763;48.780;9.212;2023-02-12T12:26:55;100350.72;;;14.76;53.57
19259;BME280;9763;48.780;9.212;2023-02-12T12:30:30;100349.56;;;14.82;52.86
19259;BME280;9763;48.780;9.212;2023-02-12T12:34:07;100342.91;;;14.92;53.43
19259;BME280;9763;48.780;9.212;2023-02-12T12:37:41;100351.47;;;14.96;52.97
19259;BME280;9763;48.780;9.212;2023-02-12T12:41:23;100346.59;;;15.05;53.29
19259;BME280;9763;48.780;9.212;2023-02-12T12:45:04;100342.31;;;15.20;52.92
19259;BME280;9763;48.780;9.212;2023-02-12T12:48:57;100312.44;;;15.21;52.53
19259;BME280;9763;48.780;9.212;2023-02-12T12:52:53;100329.25;;;15.34;52.69
19259;BME280;9763;48.780;9.212;2023-02-12T12:56:43;100322.84;;;15.23;52.69
19259;BME280;9763;48.780;9.212;2023-02-12T13:00:34;100319.03;;;15.12;52.93
19259;BME280;9763;48.780;9.212;2023-02-12T13:04:40;100316.38;;;14.97;53.38
19259;BME280;9763;48.780;9.212;2023-02-12T13:08:27;100314.84;;;14.75;53.47
19259;BME280;9763;48.780;9.212;2023-02-12T13:12:35;100313.16;;;14.57;53.62
19259;BME280;9763;48.780;9.212;2023-02-12T13:16:08;100308.09;;;14.35;53.75
19259;BME280;9763;48.780;9.212;2023-02-12T13:19:54;100305.66;;;14.14;54.11
19259;BME280;9763;48.780;9.212;2023-02-12T13:23:33;100301.19;;;13.98;54.15
19259;BME280;9763;48.780;9.212;2023-02-12T13:27:04;100304.94;;;13.93;54.13
19259;BME280;9763;48.780;9.212;2023-02-12T13:30:32;100301.13;;;13.81;54.31
19259;BME280;9763;48.780;9.212;2023-02-12T13:34:01;100291.09;;;13.72;54.18
19259;BME280;9763;48.780;9.212;2023-02-12T13:37:35;100299.09;;;13.69;54.19
19259;BME280;9763;48.780;9.212;2023-02-12T13:41:07;100298.31;;;13.67;54.21
19259;BME280;9763;48.780;9.212;2023-02-12T13:44:42;100287.19;;;13.62;54.53
19259;BME280;9763;48.780;9.212;2023-02-12T13:48:27;100293.91;;;13.67;55.06
19259;BME280;9763;48.780;9.212;2023-02-12T13:52:02;100286.13;;;13.66;54.68
19259;BME280;9763;48.780;9.212;2023-02-12T13:55:34;100281.88;;;13.63;54.99
19259;BME280;9763;48.780;9.212;2023-02-12T13:59:02;100281.25;;;13.58;54.60
19259;BME280;9763;48.780;9.212;2023-02-12T14:02:46;100284.16;;;13.52;54.69
19259;BME280;9763;48.780;9.212;2023-02-12T14:06:15;100276.56;;;13.46;55.17
19259;BME280;9763;48.780;9.212;2023-02-12T14:09:44;100276.94;;;13.39;55.11
19259;BME280;9763;48.780;9.212;2023-02-12T14:13:17;100274.44;;;13.36;55.40
19259;BME280;9763;48.780;9.212;2023-02-12T14:16:43;100269.41;;;13.31;55.49
19259;BME280;9763;48.780;9.212;2023-02-12T14:20:20;100269.47;;;13.29;55.53
19259;BME280;9763;48.780;9.212;2023-02-12T14:23:45;100267.75;;;13.28;55.20
19259;BME280;9763;48.780;9.212;2023-02-12T14:27:29;100259.28;;;13.23;55.08
19259;BME280;9763;48.780;9.212;2023-02-12T14:31:29;100244.66;;;13.18;55.01
19259;BME280;9763;48.780;9.212;2023-02-12T14:34:54;100252.47;;;13.19;55.05
19259;BME280;9763;48.780;9.212;2023-02-12T14:39:03;100257.09;;;13.14;55.14
19259;BME280;9763;48.780;9.212;2023-02-12T14:42:54;100252.88;;;13.10;55.79
19259;BME280;9763;48.780;9.212;2023-02-12T14:46:46;100254.69;;;13.08;55.23
19259;BME280;9763;48.780;9.212;2023-02-12T14:50:19;100259.16;;;13.06;55.48
19259;BME280;9763;48.780;9.212;2023-02-12T14:53:46;100246.34;;;13.00;55.38
19259;BME280;9763;48.780;9.212;2023-02-12T14:57:23;100244.84;;;12.94;55.68
19259;BME280;9763;48.780;9.212;2023-02-12T15:00:51;100250.13;;;12.93;55.19
19259;BME280;9763;48.780;9.212;2023-02-12T15:04:24;100253.78;;;12.90;55.82
19259;BME280;9763;48.780;9.212;2023-02-12T15:07:54;100253.06;;;12.87;55.72
19259;BME280;9763;48.780;9.212;2023-02-12T15:11:32;100254.09;;;12.83;55.57
19259;BME280;9763;48.780;9.212;2023-02-12T15:15:05;100251.84;;;12.75;55.72
19259;BME280;9763;48.780;9.212;2023-02-12T15:18:47;100242.47;;;12.70;55.81
19259;BME280;9763;48.780;9.212;2023-02-12T15:22:22;100250.47;;;12.67;55.62
19259;BME280;9763;48.780;9.212;2023-02-12T15:25:50;100250.78;;;12.59;55.31
19259;BME280;9763;48.780;9.212;2023-02-12T15:29:20;100244.06;;;12.53;55.33
19259;BME280;9763;48.780;9.212;2023-02-12T15:32:45;100245.22;;;12.46;55.66
19259;BME280;9763;48.780;9.212;2023-02-12T15:36:15;100242.94;;;12.39;55.34
19259;BME280;9763;48.780;9.212;2023-02-12T15:39:43;100240.59;;;12.33;55.97
19259;BME280;9763;48.780;9.212;2023-02-12T15:43:17;100243.53;;;12.25;55.98
19259;BME280;9763;48.780;9.212;2023-02-12T15:46:56;100228.22;;;12.16;55.76
19259;BME280;9763;48.780;9.212;2023-02-12T15:50:21;100225.84;;;12.10;55.80
19259;BME280;9763;48.780;9.212;2023-02-12T15:53:45;100226.19;;;12.02;55.65
19259;BME280;9763;48.780;9.212;2023-02-12T15:57:11;100236.88;;;11.96;55.60
19259;BME280;9763;48.780;9.212;2023-02-12T16:00:42;100225.03;;;11.87;55.80
19259;BME280;9763;48.780;9.212;2023-02-12T16:04:07;100232.25;;;11.82;56.06
19259;BME280;9763;48.780;9.212;2023-02-12T16:07:36;100226.47;;;11.73;56.18
19259;BME280;9763;48.780;9.212;2023-02-12T16:11:01;100227.66;;;11.66;56.16
19259;BME280;9763;48.780;9.212;2023-02-12T16:14:40;100225.34;;;11.58;56.13
19259;BME280;9763;48.780;9.212;2023-02-12T16:18:22;100226.38;;;11.54;55.93
19259;BME280;9763;48.780;9.212;2023-02-12T16:21:50;100233.59;;;11.47;55.98
19259;BME280;9763;48.780;9.212;2023-02-12T16:25:19;100233.06;;;11.39;55.99
19259;BME280;9763;48.780;9.212;2023-02-12T16:28:46;100237.78;;;11.30;56.38
19259;BME280;9763;48.780;9.212;2023-02-12T16:32:29;100241.63;;;11.21;56.09
19259;BME280;9763;48.780;9.212;2023-02-12T16:36:02;100242.94;;;11.09;56.65
19259;BME280;9763;48.780;9.212;2023-02-12T16:40:19;100252.81;;;11.01;56.66
19259;BME280;9763;48.780;9.212;2023-02-12T16:43:44;100251.28;;;10.96;56.42
19259;BME280;9763;48.780;9.212;2023-02-12T16:47:19;100248.94;;;10.88;56.88
19259;BME280;9763;48.780;9.212;2023-02-12T16:50:49;100263.84;;;10.86;56.57
19259;BME280;9763;48.780;9.212;2023-02-12T16:54:35;100256.22;;;10.80;56.88
19259;BME280;9763;48.780;9.212;2023-02-12T16:57:59;100265.97;;;10.75;57.03
19259;BME280;9763;48.780;9.212;2023-02-12T17:01:26;100274.88;;;10.69;57.16
19259;BME280;9763;48.780;9.212;2023-02-12T17:04:50;100275.94;;;10.64;56.87
19259;BME280;9763;48.780;9.212;2023-02-12T17:08:21;100272.69;;;10.57;57.33
19259;BME280;9763;48.780;9.212;2023-02-12T17:11:46;100279.88;;;10.51;57.20
19259;BME280;9763;48.780;9.212;2023-02-12T17:15:20;100283.56;;;10.45;56.83
19259;BME280;9763;48.780;9.212;2023-02-12T17:18:45;100282.00;;;10.39;57.21
19259;BME280;9763;48.780;9.212;2023-02-12T17:22:19;100280.47;;;10.34;56.91
19259;BME280;9763;48.780;9.212;2023-02-12T17:25:44;100293.63;;;10.31;56.95
19259;BME280;9763;48.780;9.212;2023-02-12T17:29:09;100289.38;;;10.27;57.07
19259;BME280;9763;48.780;9.212;2023-02-12T17:32:33;100283.50;;;10.22;57.01
19259;BME280;9763;48.780;9.212;2023-02-12T17:35:57;100289.72;;;10.16;56.84
19259;BME280;9763;48.780;9.212;2023-02-12T17:39:21;100288.22;;;10.09;57.21
19259;BME280;9763;48.780;9.212;2023-02-12T17:42:45;100290.16;;;10.02;57.40
19259;BME280;9763;48.780;9.212;2023-02-12T17:46:11;100287.78;;;9.96;57.46
19259;BME280;9763;48.780;9.212;2023-02-12T17:49:35;100290.44;;;9.95;57.43
19259;BME280;9763;48.780;9.212;2023-02-12T17:53:01;100293.25;;;9.89;57.62
19259;BME280;9763;48.780;9.212;2023-02-12T17:56:24;100296.03;;;9.83;57.67
19259;BME280;9763;48.780;9.212;2023-02-12T17:59:48;100288.41;;;9.77;57.72
19259;BME280;9763;48.780;9.212;2023-02-12T18:03:13;100298.84;;;9.77;57.18
19259;BME280;9763;48.780;9.212;2023-02-12T18:06:36;100285.94;;;9.72;57.62
19259;BME280;9763;48.780;9.212;2023-02-12T18:10:00;100293.03;;;9.67;57.00
19259;BME280;9763;48.780;9.212;2023-02-12T18:13:24;100297.56;;;9.62;57.04
19259;BME280;9763;48.780;9.212;2023-02-12T18:16:48;100309.78;;;9.60;57.32
19259;BME280;9763;48.780;9.212;2023-02-12T18:20:13;100301.22;;;9.55;57.54
19259;BME280;9763;48.780;9.212;2023-02-12T18:23:37;100309.22;;;9.50;57.24
19259;BME280;9763;48.780;9.212;2023-02-12T18:27:01;100306.72;;;9.46;57.18
19259;BME280;9763;48.780;9.212;2023-02-12T18:30:25;100304.31;;;9.39;57.31
19259;BME280;9763;48.780;9.212;2023-02-12T18:33:49;100309.56;;;9.38;57.36
19259;BME280;9763;48.780;9.212;2023-02-12T18:37:14;100300.09;;;9.35;57.07
19259;BME280;9763;48.780;9.212;2023-02-12T18:40:39;100294.06;;;9.33;57.29